Mugan — 9HA2962 — position and weather

sailwx.info

Track history (hours):
 
Tides and Currents Weather Stations Pressure Air Temp Water Temp Dewpoint Dewpoint Depression Visibility Wind Speed Wind Dir Waves Ship Positions

Mugan

Last reported at 2016-Jul-30 12:27 UTC. Time now 2016-Jul-30 15:00 UTC.
Position N 41°19' E 002°11'.

; draft 3.4 m.

Type: Tanker. MMSI: 256914000.

Date/timePositionNaut miles runAvg speedWind from/ knotsBaromVisibWave heightAir tempDewpointWater temp
2016-Jul-30 12:27N 41°19' E 002°11'0 0.0
2016-Jul-30 09:09N 41°19' E 002°11'0 0.0
2016-Jul-30 08:27N 41°19' E 002°11'0 0.0
2016-Jul-30 07:15N 41°19' E 002°11'0 0.0
2016-Jul-30 04:27N 41°19' E 002°11'0 0.0
2016-Jul-30 01:27N 41°19' E 002°11'0 0.0
2016-Jul-30 00:27N 41°19' E 002°11'0 0.0
2016-Jul-29 21:21N 41°19' E 002°11'0 0.0
2016-Jul-29 20:27N 41°19' E 002°11'0 0.0
2016-Jul-29 16:27N 41°19' E 002°11'0 0.0
2016-Jul-29 13:27N 41°19' E 002°11'  
2016-Jul-22 00:20N 37°25' E 011°20'810.3
2016-Jul-21 23:32N 37°21' E 011°29'1210.7
2016-Jul-21 22:25N 37°16' E 011°43'40 9.9
2016-Jul-21 18:25N 37°00' E 012°28'8 9.6
2016-Jul-21 17:33N 36°57' E 012°38'20 9.9
2016-Jul-21 15:31N 36°49' E 013°01'9 9.5
2016-Jul-21 14:33N 36°45' E 013°11'9 9.3
2016-Jul-21 13:33N 36°41' E 013°22'10 9.3
2016-Jul-21 12:32N 36°37' E 013°33'9 9.5
2016-Jul-21 11:33N 36°34' E 013°43'9 9.3
2016-Jul-21 10:33N 36°32' E 013°55'9 9.0
2016-Jul-21 09:33N 36°29' E 014°05'9 9.2
2016-Jul-21 08:33N 36°27' E 014°17'10 9.6
2016-Jul-21 07:33N 36°25' E 014°28'11 9.9
2016-Jul-21 06:29N 36°24' E 014°41'  
Track history (hours):
 
Tides and Currents Weather Stations Pressure Air Temp Water Temp Dewpoint Dewpoint Depression Visibility Wind Speed Wind Dir Waves Ship Positions

Mugan

Last reported at 2016-Jul-30 12:27 UTC. Time now 2016-Jul-30 15:00 UTC.
Position N 41°19' E 002°11'.

; draft 3.4 m.

Type: Tanker. MMSI: 256914000.

Date/timePositionNaut miles runAvg speedWind from/ knotsBaromVisibWave heightAir tempDewpointWater temp
2016-Jul-30 12:27N 41°19' E 002°11'0 0.0
2016-Jul-30 09:09N 41°19' E 002°11'0 0.0
2016-Jul-30 08:27N 41°19' E 002°11'0 0.0
2016-Jul-30 07:15N 41°19' E 002°11'0 0.0
2016-Jul-30 04:27N 41°19' E 002°11'0 0.0
2016-Jul-30 01:27N 41°19' E 002°11'0 0.0
2016-Jul-30 00:27N 41°19' E 002°11'0 0.0
2016-Jul-29 21:21N 41°19' E 002°11'0 0.0
2016-Jul-29 20:27N 41°19' E 002°11'0 0.0
2016-Jul-29 16:27N 41°19' E 002°11'0 0.0
2016-Jul-29 13:27N 41°19' E 002°11'  
2016-Jul-22 00:20N 37°25' E 011°20'810.3
2016-Jul-21 23:32N 37°21' E 011°29'1210.7
2016-Jul-21 22:25N 37°16' E 011°43'40 9.9
2016-Jul-21 18:25N 37°00' E 012°28'8 9.6
2016-Jul-21 17:33N 36°57' E 012°38'20 9.9
2016-Jul-21 15:31N 36°49' E 013°01'9 9.5
2016-Jul-21 14:33N 36°45' E 013°11'9 9.3
2016-Jul-21 13:33N 36°41' E 013°22'10 9.3
2016-Jul-21 12:32N 36°37' E 013°33'9 9.5
2016-Jul-21 11:33N 36°34' E 013°43'9 9.3
2016-Jul-21 10:33N 36°32' E 013°55'9 9.0
2016-Jul-21 09:33N 36°29' E 014°05'9 9.2
2016-Jul-21 08:33N 36°27' E 014°17'10 9.6
2016-Jul-21 07:33N 36°25' E 014°28'11 9.9
2016-Jul-21 06:29N 36°24' E 014°41'  

Dump ship's entire track history